Time;durP1;ratioP1;P1;durP2;ratioP2;P2;SDS_P1;SDS_P2;PMS_P1;PMS_P2;Temp;Humidity;BMP_temperature;BMP_pressure;BME280_temperature;BME280_humidity;BME280_pressure;Samples;Min_cycle;Max_cycle;Signal;HPM_P1;HPM_P2
2022/10/18 00:02:13;;;;;;;18.00;11.83;;;;;;;12.78;100.00;102588.72;5038143;28;20200;-70
2022/10/18 00:04:39;;;;;;;13.83;10.70;;;;;;;13.26;100.00;102665.09;5037989;28;20219;-70
2022/10/18 00:07:04;;;;;;;13.03;10.20;;;;;;;13.44;100.00;102672.13;5019332;28;20529;-71
2022/10/18 00:09:30;;;;;;;13.57;10.63;;;;;;;12.72;100.00;102584.00;5017972;28;20208;-71
2022/10/18 00:11:55;;;;;;;11.70;10.20;;;;;;;13.31;100.00;102681.59;5036404;28;20664;-71
2022/10/18 00:14:21;;;;;;;12.43;9.13;;;;;;;13.36;100.00;102656.81;5019426;28;21155;-71
2022/10/18 00:16:46;;;;;;;10.50;8.10;;;;;;;13.04;100.00;102590.34;5021668;28;20184;-71
2022/10/18 00:19:12;;;;;;;14.30;8.90;;;;;;;13.39;100.00;102624.13;5039542;28;20188;-71
2022/10/18 00:21:37;;;;;;;10.77;7.80;;;;;;;13.54;100.00;102664.69;5035798;28;20700;-71
2022/10/18 00:24:03;;;;;;;11.93;7.83;;;;;;;12.88;100.00;102567.00;5039436;28;20924;-71
2022/10/18 00:26:30;;;;;;;9.50;7.67;;;;;;;12.95;100.00;102583.31;5034625;22;20265;-74
2022/10/18 00:29:04;;;;;;;12.23;7.60;;;;;;;13.43;100.00;102646.19;4997058;28;20432;-75
2022/10/18 00:31:35;;;;;;;14.37;8.17;;;;;;;12.75;100.00;102556.75;5014498;28;20504;-75
2022/10/18 00:34:05;;;;;;;11.77;8.07;;;;;;;13.07;100.00;102620.47;5022109;28;20436;-75
2022/10/18 00:36:33;;;;;;;12.07;7.40;;;;;;;13.43;100.00;102667.75;5023319;28;20443;-74
2022/10/18 00:38:59;;;;;;;10.67;7.10;;;;;;;12.52;100.00;102539.63;5012490;28;20455;-75
2022/10/18 00:41:28;;;;;;;11.67;7.63;;;;;;;13.09;100.00;102663.41;5013632;28;20528;-75
2022/10/18 00:43:56;;;;;;;10.47;7.20;;;;;;;13.24;100.00;102696.72;5016008;28;20522;-75
2022/10/18 00:46:23;;;;;;;10.17;8.00;;;;;;;13.25;100.00;102693.06;5010893;28;22169;-74
2022/10/18 00:48:50;;;;;;;9.77;7.43;;;;;;;12.40;100.00;102556.09;4991189;28;20554;-75
2022/10/18 00:51:17;;;;;;;10.50;6.53;;;;;;;12.72;100.00;102627.09;5017066;28;20469;-74
2022/10/18 00:53:43;;;;;;;9.67;5.73;;;;;;;13.25;100.00;102690.38;5016145;28;20443;-74
2022/10/18 00:56:09;;;;;;;12.53;7.30;;;;;;;12.37;100.00;102566.38;5013764;28;20814;-75
2022/10/18 00:58:35;;;;;;;14.10;7.80;;;;;;;12.45;100.00;102609.44;5016082;28;20312;-75
2022/10/18 01:01:00;;;;;;;11.80;10.50;;;;;;;12.65;100.00;102682.63;5013826;28;20262;-75
2022/10/18 01:03:25;;;;;;;17.90;11.03;;;;;;;12.52;100.00;102699.25;4998336;28;20192;-76
2022/10/18 01:05:51;;;;;;;12.33;10.63;;;;;;;11.92;100.00;102635.75;5017013;28;20204;-76
2022/10/18 01:08:35;;;;;;;16.20;11.10;;;;;;;12.32;100.00;102698.72;5016191;28;20220;-75
2022/10/18 01:11:06;;;;;;;12.97;11.47;;;;;;;12.24;100.00;102704.09;5013439;28;20291;-75
2022/10/18 01:13:59;;;;;;;15.10;12.20;;;;;;;12.31;100.00;102699.75;4997807;28;20489;-75
2022/10/18 01:16:41;;;;;;;18.40;11.60;;;;;;;12.30;100.00;102699.91;4997220;28;20557;-75
2022/10/18 01:19:15;;;;;;;21.83;12.73;;;;;;;12.31;100.00;102690.81;5013972;28;21016;-75
2022/10/18 01:22:08;;;;;;;12.03;10.83;;;;;;;12.42;100.00;102690.50;5016082;28;20958;-75
2022/10/18 01:24:45;;;;;;;15.03;12.07;;;;;;;12.29;100.00;102687.44;5013144;28;20438;-75
2022/10/18 01:27:10;;;;;;;12.23;11.03;;;;;;;12.31;100.00;102675.53;4994902;28;20474;-75
2022/10/18 01:30:01;;;;;;;20.43;11.40;;;;;;;12.25;100.00;102653.81;5013525;28;20466;-75
2022/10/18 01:32:33;;;;;;;12.90;11.50;;;;;;;11.23;100.00;102499.78;5013269;28;20180;-75
2022/10/18 01:35:04;;;;;;;11.93;10.73;;;;;;;12.03;100.00;102599.63;5014118;28;20434;-75
2022/10/18 01:37:31;;;;;;;13.40;12.03;;;;;;;11.43;100.00;102511.94;5011900;28;20492;-75
2022/10/18 01:39:59;;;;;;;14.57;11.37;;;;;;;11.38;100.00;102529.56;4996043;28;20837;-75
2022/10/18 01:42:25;;;;;;;12.00;10.80;;;;;;;12.34;100.00;102675.19;5000181;28;20532;-75
2022/10/18 01:44:52;;;;;;;14.60;10.83;;;;;;;11.63;100.00;102543.88;5011505;28;20465;-75
2022/10/18 01:47:19;;;;;;;12.40;11.30;;;;;;;11.75;100.00;102572.16;5013557;28;20467;-74
2022/10/18 01:49:44;;;;;;;13.90;10.90;;;;;;;11.67;100.00;102578.34;5017260;28;20481;-74
2022/10/18 01:52:15;;;;;;;13.37;11.57;;;;;;;11.71;100.00;102577.00;5015392;28;20452;-75
2022/10/18 01:54:49;;;;;;;12.73;11.50;;;;;;;11.87;100.00;102588.88;5014914;28;20649;-75
2022/10/18 01:57:40;;;;;;;41.10;13.20;;;;;;;11.99;100.00;102619.81;5012896;28;20464;-76
2022/10/18 02:00:16;;;;;;;14.53;10.23;;;;;;;12.34;100.00;102660.91;5004776;28;20585;-75
2022/10/18 02:02:47;;;;;;;12.50;10.40;;;;;;;12.33;100.00;102669.97;5013867;28;20444;-75
2022/10/18 02:05:35;;;;;;;14.30;11.70;;;;;;;12.40;100.00;102669.13;5011707;28;20535;-74
2022/10/18 02:08:20;;;;;;;12.20;11.00;;;;;;;11.29;100.00;102483.84;5013288;28;20431;-75
2022/10/18 02:10:50;;;;;;;11.20;9.83;;;;;;;12.24;100.00;102638.66;5012449;28;20476;-74
2022/10/18 02:13:19;;;;;;;10.90;9.73;;;;;;;11.40;100.00;102493.47;5012645;28;25125;-73
2022/10/18 02:15:48;;;;;;;15.60;11.23;;;;;;;11.50;100.00;102496.00;5013567;28;20840;-75
2022/10/18 02:18:28;;;;;;;11.23;10.13;;;;;;;11.83;100.00;102566.81;4997961;28;25161;-75
2022/10/18 02:20:55;;;;;;;11.13;10.00;;;;;;;12.46;100.00;102658.72;4997279;28;20435;-74
2022/10/18 02:23:23;;;;;;;13.47;12.07;;;;;;;12.41;100.00;102651.13;4995802;28;21506;-74
2022/10/18 02:25:49;;;;;;;13.33;10.47;;;;;;;11.74;100.00;102562.41;5007351;28;20522;-74
2022/10/18 02:28:15;;;;;;;11.70;10.60;;;;;;;11.50;100.00;102517.50;5013938;28;20443;-75
2022/10/18 02:30:51;;;;;;;11.57;9.90;;;;;;;12.34;100.00;102659.03;5012171;28;20217;-75
2022/10/18 02:33:25;;;;;;;19.23;10.70;;;;;;;11.73;100.00;102590.28;4997334;28;20275;-74
2022/10/18 02:35:58;;;;;;;12.53;11.23;;;;;;;12.26;100.00;102664.41;5012453;28;20471;-75
2022/10/18 02:38:25;;;;;;;14.33;10.87;;;;;;;10.90;100.00;102442.41;5011600;28;20541;-74
2022/10/18 02:40:51;;;;;;;23.40;12.00;;;;;;;12.25;100.00;102618.84;5012836;28;20437;-74
2022/10/18 02:43:16;;;;;;;21.10;12.50;;;;;;;11.62;100.00;102528.78;5015260;28;20968;-75
2022/10/18 02:45:42;;;;;;;12.23;11.03;;;;;;;12.19;100.00;102617.66;5008829;28;20239;-75
2022/10/18 02:48:08;;;;;;;13.60;11.10;;;;;;;12.39;100.00;102650.47;4994878;28;20235;-75
2022/10/18 02:50:34;;;;;;;12.27;11.07;;;;;;;11.79;100.00;102552.00;5013252;28;20207;-75
2022/10/18 02:52:59;;;;;;;11.87;10.77;;;;;;;12.41;100.00;102661.91;5013014;28;20443;-75
2022/10/18 02:55:24;;;;;;;13.23;11.70;;;;;;;11.71;100.00;102543.91;5013977;28;20192;-74
2022/10/18 02:57:50;;;;;;;13.03;11.83;;;;;;;11.60;100.00;102528.09;5014959;28;20561;-75
2022/10/18 03:00:15;;;;;;;14.17;12.67;;;;;;;11.75;100.00;102558.72;4995370;28;20198;-74
2022/10/18 03:02:41;;;;;;;14.30;11.20;;;;;;;11.82;100.00;102561.59;4993991;28;20203;-74
2022/10/18 03:05:06;;;;;;;11.87;10.77;;;;;;;11.74;100.00;102543.59;4995254;28;20288;-74
2022/10/18 03:07:32;;;;;;;16.13;12.80;;;;;;;11.65;100.00;102544.56;5013536;28;20225;-75
2022/10/18 03:09:57;;;;;;;13.50;12.17;;;;;;;12.28;100.00;102624.72;5013178;28;20212;-75
2022/10/18 03:12:22;;;;;;;12.10;10.90;;;;;;;11.64;100.00;102516.84;5016009;28;20561;-75
2022/10/18 03:14:48;;;;;;;15.53;11.60;;;;;;;12.07;100.00;102614.44;5011549;28;20177;-76
2022/10/18 03:17:13;;;;;;;42.57;12.90;;;;;;;12.30;100.00;102664.94;5013256;28;20959;-76
2022/10/18 03:19:39;;;;;;;12.73;11.53;;;;;;;12.33;100.00;102613.47;5014333;28;20192;-75
2022/10/18 03:22:05;;;;;;;11.83;10.63;;;;;;;12.53;100.00;102628.28;5000992;28;20197;-75
2022/10/18 03:24:30;;;;;;;12.27;11.00;;;;;;;11.81;100.00;102504.28;5014359;28;25065;-75
2022/10/18 03:26:55;;;;;;;13.00;11.70;;;;;;;12.50;100.00;102628.63;5008039;28;20220;-75
2022/10/18 03:29:21;;;;;;;12.10;11.00;;;;;;;12.23;100.00;102559.81;4992770;28;20704;-75
2022/10/18 03:31:46;;;;;;;12.60;11.40;;;;;;;12.01;100.00;102534.44;5015580;28;20192;-77
2022/10/18 03:34:12;;;;;;;11.27;10.20;;;;;;;12.33;100.00;102587.41;4999415;28;20719;-75
2022/10/18 03:36:39;;;;;;;13.00;11.70;;;;;;;12.44;100.00;102592.47;5014181;28;20215;-75
2022/10/18 03:39:04;;;;;;;12.57;11.37;;;;;;;12.76;100.00;102643.78;5011562;28;20192;-75
2022/10/18 03:41:29;;;;;;;12.37;11.03;;;;;;;12.75;100.00;102636.69;5014657;28;20435;-75
2022/10/18 03:43:55;;;;;;;13.00;11.63;;;;;;;12.32;100.00;102587.56;5013849;28;20189;-74
2022/10/18 03:46:20;;;;;;;12.57;11.27;;;;;;;12.55;100.00;102601.19;5013047;28;20213;-75
2022/10/18 03:48:45;;;;;;;12.43;11.23;;;;;;;12.18;100.00;102536.13;5013928;28;20189;-74
2022/10/18 03:51:11;;;;;;;13.90;11.80;;;;;;;12.58;100.00;102617.00;5012665;28;20217;-75
2022/10/18 03:53:36;;;;;;;12.57;11.30;;;;;;;12.75;100.00;102620.53;5010631;28;20200;-74
2022/10/18 03:56:02;;;;;;;14.47;13.07;;;;;;;12.25;100.00;102559.66;5007870;28;20209;-75
2022/10/18 03:58:27;;;;;;;13.37;11.97;;;;;;;12.14;100.00;102548.22;5010739;28;20196;-75
2022/10/18 04:00:53;;;;;;;14.00;11.90;;;;;;;12.39;100.00;102610.13;5006693;28;20243;-75
2022/10/18 04:03:20;;;;;;;13.03;11.60;;;;;;;12.58;100.00;102630.47;5007519;28;20270;-75
2022/10/18 04:05:47;;;;;;;16.33;12.20;;;;;;;11.91;100.00;102545.31;5005731;28;20475;-75
2022/10/18 04:08:13;;;;;;;12.17;10.90;;;;;;;12.09;100.00;102558.66;5008436;28;20520;-75
2022/10/18 04:10:39;;;;;;;12.80;11.50;;;;;;;12.34;100.00;102594.47;5008432;28;20458;-75
2022/10/18 04:13:05;;;;;;;13.30;11.90;;;;;;;12.34;100.00;102618.69;4996979;28;21165;-74
2022/10/18 04:15:31;;;;;;;13.10;11.43;;;;;;;12.45;100.00;102620.22;5002421;28;21768;-75
2022/10/18 04:17:56;;;;;;;14.10;12.70;;;;;;;12.32;100.00;102592.94;5013791;28;20443;-75
2022/10/18 04:20:23;;;;;;;13.30;11.80;;;;;;;12.32;100.00;102601.84;5011781;28;20466;-75
2022/10/18 04:22:49;;;;;;;13.47;12.07;;;;;;;12.40;100.00;102618.00;5014277;28;21177;-75
2022/10/18 04:25:15;;;;;;;12.97;10.50;;;;;;;11.90;100.00;102535.59;5010471;28;20492;-75
2022/10/18 04:27:40;;;;;;;16.20;11.13;;;;;;;11.70;100.00;102516.19;5010597;28;21170;-75
2022/10/18 04:30:06;;;;;;;13.70;10.90;;;;;;;11.89;100.00;102519.59;5007016;28;20474;-76
2022/10/18 04:32:33;;;;;;;14.77;11.30;;;;;;;11.85;100.00;102516.41;4993818;28;25061;-75
2022/10/18 04:34:59;;;;;;;11.80;10.27;;;;;;;11.98;100.00;102559.81;4998783;28;20442;-76
2022/10/18 04:37:24;;;;;;;13.90;11.07;;;;;;;12.40;100.00;102627.94;5010624;28;20474;-75
2022/10/18 04:39:50;;;;;;;12.53;11.00;;;;;;;11.82;100.00;102514.03;5012231;28;20191;-76
2022/10/18 04:42:15;;;;;;;12.87;10.73;;;;;;;12.31;100.00;102632.47;5014904;28;20591;-74
2022/10/18 04:44:40;;;;;;;12.60;11.30;;;;;;;11.66;100.00;102536.38;5012827;28;20686;-75
2022/10/18 04:47:06;;;;;;;13.53;11.20;;;;;;;11.67;100.00;102545.25;5015070;28;20287;-74
2022/10/18 04:49:31;;;;;;;14.60;11.57;;;;;;;12.21;100.00;102624.56;5011227;28;22336;-75
2022/10/18 04:51:57;;;;;;;11.27;10.17;;;;;;;11.44;100.00;102505.56;5017185;28;20275;-75
2022/10/18 04:54:22;;;;;;;14.30;10.90;;;;;;;11.90;100.00;102551.72;4998946;28;20231;-75
2022/10/18 04:56:48;;;;;;;12.40;10.90;;;;;;;12.26;100.00;102642.03;4999653;28;20214;-75
2022/10/18 04:59:13;;;;;;;10.90;9.80;;;;;;;11.64;100.00;102540.22;5009354;28;20539;-75
2022/10/18 05:01:38;;;;;;;12.60;10.63;;;;;;;12.07;100.00;102610.91;5024050;28;20186;-76
2022/10/18 05:04:04;;;;;;;15.93;9.60;;;;;;;11.20;100.00;102466.03;5023206;28;20193;-75
2022/10/18 05:06:29;;;;;;;12.90;10.27;;;;;;;12.10;100.00;102610.59;5010701;28;20291;-76
2022/10/18 05:08:54;;;;;;;11.43;10.23;;;;;;;11.98;100.00;102567.03;5024756;28;20271;-76
2022/10/18 05:11:20;;;;;;;11.70;9.73;;;;;;;12.29;100.00;102658.69;5021754;28;20206;-76
2022/10/18 05:13:45;;;;;;;11.33;10.13;;;;;;;11.53;100.00;102519.84;5024712;28;20271;-76
2022/10/18 05:16:11;;;;;;;11.87;9.53;;;;;;;11.73;100.00;102548.13;5022511;28;25072;-76
2022/10/18 05:18:36;;;;;;;10.40;9.20;;;;;;;12.00;100.00;102591.91;5005929;28;25074;-75
2022/10/18 05:21:01;;;;;;;12.87;9.63;;;;;;;11.84;100.00;102557.72;5021918;28;20556;-76
2022/10/18 05:23:27;;;;;;;9.40;8.50;;;;;;;11.63;100.00;102551.94;5021483;28;20199;-76
2022/10/18 05:25:53;;;;;;;14.87;9.17;;;;;;;11.52;100.00;102564.69;5023857;28;20204;-75
2022/10/18 05:28:18;;;;;;;9.43;8.43;;;;;;;11.24;100.00;102479.97;5018559;28;20181;-76
2022/10/18 05:30:44;;;;;;;10.03;7.63;;;;;;;10.35;100.00;102377.44;5012487;28;20652;-76
2022/10/18 05:33:09;;;;;;;11.20;8.53;;;;;;;10.23;100.00;102380.53;5020756;28;20195;-75
2022/10/18 05:35:35;;;;;;;8.73;7.93;;;;;;;10.88;100.00;102482.88;5012400;28;25106;-76
2022/10/18 05:38:05;;;;;;;9.17;7.57;;;;;;;9.97;100.00;102298.28;5012039;28;20186;-76
2022/10/18 05:40:31;;;;;;;8.90;8.00;;;;;;;11.34;100.00;102557.72;5005742;28;25052;-76
2022/10/18 05:42:57;;;;;;;8.97;8.03;;;;;;;10.10;100.00;102314.78;5020875;28;20492;-76
2022/10/18 05:45:22;;;;;;;9.93;8.77;;;;;;;10.56;100.00;102419.97;5002686;28;20456;-77
2022/10/18 05:47:48;;;;;;;9.57;8.43;;;;;;;10.71;100.00;102424.75;5007098;28;20242;-77
2022/10/18 05:50:13;;;;;;;9.33;8.43;;;;;;;10.26;100.00;102350.72;5022694;28;20221;-76
2022/10/18 05:53:08;;;;;;;9.17;8.27;;;;;;;11.99;100.00;102706.69;5021784;28;20199;-76
2022/10/18 05:55:33;;;;;;;9.10;8.07;;;;;;;10.18;100.00;102354.19;5003107;28;20184;-76
2022/10/18 05:57:59;;;;;;;8.83;7.97;;;;;;;10.58;100.00;102446.63;5017769;28;20439;-77
2022/10/18 06:00:24;;;;;;;9.27;8.23;;;;;;;11.77;100.00;102583.56;5018659;28;20188;-76
2022/10/18 06:02:50;;;;;;;8.90;8.00;;;;;;;10.43;100.00;102389.22;5002923;28;20190;-79
2022/10/18 06:05:15;;;;;;;9.03;8.13;;;;;;;10.77;100.00;102469.72;5022288;28;21011;-76
2022/10/18 06:07:41;;;;;;;10.97;8.33;;;;;;;10.07;100.00;102349.09;5002840;28;20331;-75
2022/10/18 06:10:07;;;;;;;10.97;9.80;;;;;;;10.49;100.00;102435.03;5017652;28;20720;-75
2022/10/18 06:12:32;;;;;;;8.97;7.67;;;;;;;10.36;100.00;102410.47;5017984;28;20249;-75
2022/10/18 06:14:58;;;;;;;10.10;7.70;;;;;;;9.98;100.00;102364.31;5014493;28;20449;-75
2022/10/18 06:17:23;;;;;;;8.60;7.73;;;;;;;10.48;100.00;102425.28;5013294;28;20211;-75
2022/10/18 06:19:48;;;;;;;12.67;8.90;;;;;;;12.19;100.00;102706.44;5018581;28;20187;-75
2022/10/18 06:22:14;;;;;;;9.00;8.07;;;;;;;12.16;100.00;102709.47;5021373;28;20200;-75
2022/10/18 06:24:39;;;;;;;10.50;8.60;;;;;;;10.19;100.00;102369.28;5019213;28;20192;-75
2022/10/18 06:27:07;;;;;;;10.53;8.80;;;;;;;10.02;100.00;102360.28;5024304;28;20240;-76
2022/10/18 06:29:37;;;;;;;18.57;9.10;;;;;;;10.57;100.00;102477.16;5019580;28;20192;-76
2022/10/18 06:32:05;;;;;;;10.90;8.50;;;;;;;10.02;100.00;102405.03;5024007;28;20467;-77
2022/10/18 06:34:30;;;;;;;12.53;10.40;;;;;;;10.49;100.00;102494.03;5023566;28;20425;-76
2022/10/18 06:36:55;;;;;;;14.03;10.00;;;;;;;10.21;100.00;102458.44;5021048;28;25181;-77
2022/10/18 06:39:21;;;;;;;12.67;10.67;;;;;;;11.72;100.00;102709.59;5008138;28;20174;-77
2022/10/18 06:41:46;;;;;;;12.80;9.97;;;;;;;10.92;100.00;102563.94;5020457;28;20184;-77
2022/10/18 06:44:12;;;;;;;25.03;10.80;;;;;;;10.08;100.00;102485.66;5003561;28;20215;-76
2022/10/18 06:46:40;;;;;;;20.73;9.97;;;;;;;9.07;100.00;102343.13;5006019;28;20207;-77
2022/10/18 06:49:05;;;;;;;18.63;9.23;;;;;;;10.67;100.00;102638.06;5002310;28;20193;-76
2022/10/18 06:51:30;;;;;;;10.77;9.77;;;;;;;10.07;100.00;102531.41;5003055;28;20502;-76
2022/10/18 06:53:56;;;;;;;10.37;9.37;;;;;;;10.99;100.00;102637.44;5023260;28;20174;-76
2022/10/18 06:56:21;;;;;;;9.70;8.80;;;;;;;9.38;100.00;102367.69;5021857;28;20295;-75
2022/10/18 06:58:47;;;;;;;11.03;9.43;;;;;;;10.72;100.00;102625.84;5021415;28;20206;-75
2022/10/18 07:01:14;;;;;;;13.23;9.90;;;;;;;10.55;100.00;102587.31;5020164;28;20208;-76
2022/10/18 07:03:40;;;;;;;11.73;9.47;;;;;;;10.67;100.00;102577.16;5018976;28;20193;-75
2022/10/18 07:06:08;;;;;;;11.00;9.30;;;;;;;9.66;100.00;102419.34;5008059;28;20442;-75
2022/10/18 07:08:34;;;;;;;11.67;9.63;;;;;;;10.26;100.00;102555.38;5021479;28;20427;-75
2022/10/18 07:11:00;;;;;;;9.80;8.80;;;;;;;10.62;100.00;102627.81;5018795;28;20541;-75
2022/10/18 07:13:29;;;;;;;9.30;8.40;;;;;;;9.28;100.00;102394.50;4999429;28;21116;-76
2022/10/18 07:16:08;;;;;;;10.67;9.67;;;;;;;11.54;100.00;102728.47;5017725;28;20235;-75
2022/10/18 07:18:35;;;;;;;10.30;8.80;;;;;;;10.47;100.00;102573.88;5015781;28;20485;-76
2022/10/18 07:21:04;;;;;;;9.27;7.73;;;;;;;10.39;100.00;102504.88;5021368;28;20428;-75
2022/10/18 07:23:35;;;;;;;8.83;8.03;;;;;;;11.66;100.00;102791.72;5014917;28;20435;-75
2022/10/18 07:26:02;;;;;;;9.33;8.43;;;;;;;11.78;100.00;102773.47;5018212;28;20466;-75
2022/10/18 07:28:28;;;;;;;9.23;7.73;;;;;;;10.75;100.00;102596.03;5018638;28;20445;-75
2022/10/18 07:30:54;;;;;;;11.33;7.47;;;;;;;10.72;100.00;102584.75;5017036;28;21040;-77
2022/10/18 07:33:19;;;;;;;10.93;8.63;;;;;;;11.36;100.00;102673.94;5017879;28;20280;-76
2022/10/18 07:35:46;;;;;;;10.07;8.90;;;;;;;9.70;100.00;102436.78;5017332;28;20295;-75
2022/10/18 07:38:12;;;;;;;10.50;7.93;;;;;;;10.45;100.00;102532.09;5016461;28;20212;-76
2022/10/18 07:40:37;;;;;;;14.23;8.90;;;;;;;10.94;100.00;102642.47;5008721;28;20579;-75
2022/10/18 07:43:03;;;;;;;12.67;9.00;;;;;;;9.61;100.00;102464.50;5003961;28;25081;-76
2022/10/18 07:45:28;;;;;;;11.33;8.70;;;;;;;10.03;100.00;102530.03;5014789;28;20562;-76
2022/10/18 07:47:57;;;;;;;10.93;9.33;;;;;;;10.25;100.00;102596.59;5014101;28;20444;-76
2022/10/18 07:50:23;;;;;;;10.47;8.40;;;;;;;9.76;100.00;102477.34;5017706;28;20301;-76
2022/10/18 07:52:49;;;;;;;12.97;9.03;;;;;;;9.86;100.00;102504.91;5013679;28;20919;-77
2022/10/18 07:55:14;;;;;;;14.70;9.77;;;;;;;9.31;100.00;102406.75;5016392;28;20184;-76
2022/10/18 07:57:39;;;;;;;10.60;8.63;;;;;;;9.91;100.00;102506.13;5015705;28;20213;-76
2022/10/18 08:00:07;;;;;;;12.50;8.80;;;;;;;10.51;100.00;102612.78;5015628;28;20209;-75
2022/10/18 08:02:33;;;;;;;10.73;8.20;;;;;;;11.77;100.00;102771.75;5003895;28;20206;-75
2022/10/18 08:04:58;;;;;;;11.80;9.37;;;;;;;11.71;100.00;102821.63;5016350;28;20849;-75
2022/10/18 08:07:24;;;;;;;11.50;8.10;;;;;;;11.18;100.00;102674.84;5017452;28;20205;-76
2022/10/18 08:09:49;;;;;;;10.00;7.33;;;;;;;10.95;100.00;102618.13;4998552;28;20219;-75
2022/10/18 08:12:15;;;;;;;14.77;8.77;;;;;;;10.59;100.00;102615.53;5019922;28;20193;-76
2022/10/18 08:14:41;;;;;;;14.17;8.13;;;;;;;11.97;100.00;102791.22;5014099;28;20662;-78
2022/10/18 08:17:06;;;;;;;12.70;8.57;;;;;;;10.43;100.00;102569.78;5003719;28;20228;-76
2022/10/18 08:19:32;;;;;;;11.20;8.20;;;;;;;10.39;100.00;102574.63;5018279;28;20438;-76
2022/10/18 08:21:57;;;;;;;11.00;7.97;;;;;;;10.43;100.00;102547.50;5007290;28;20284;-76
2022/10/18 08:24:23;;;;;;;10.63;8.20;;;;;;;10.59;100.00;102502.00;5013289;28;20715;-76
2022/10/18 08:26:49;;;;;;;14.53;8.97;;;;;;;10.68;100.00;102564.63;5022600;28;20595;-76
2022/10/18 08:29:14;;;;;;;12.73;8.20;;;;;;;10.80;100.00;102580.28;5007126;28;20199;-76
2022/10/18 08:31:40;;;;;;;9.03;7.27;;;;;;;11.29;100.00;102606.59;5024576;28;20871;-76
2022/10/18 08:34:05;;;;;;;12.40;7.70;;;;;;;11.04;100.00;102576.91;5022335;28;20189;-75
2022/10/18 08:36:31;;;;;;;13.30;8.60;;;;;;;10.83;100.00;102538.88;5006494;28;20215;-76
2022/10/18 08:38:56;;;;;;;9.80;7.50;;;;;;;11.04;100.00;102565.31;5020671;28;20191;-75
2022/10/18 08:41:24;;;;;;;12.40;8.77;;;;;;;12.82;100.00;102810.88;5018799;28;20788;-76
2022/10/18 08:44:09;;;;;;;11.23;7.67;;;;;;;12.85;100.00;102821.31;5003112;28;20549;-76
2022/10/18 08:46:37;;;;;;;13.90;7.70;;;;;;;10.99;100.00;102517.50;5012089;28;20543;-75
2022/10/18 08:49:04;;;;;;;11.80;7.17;;;;;;;10.93;100.00;102531.53;5015286;28;20470;-75
2022/10/18 08:51:39;;;;;;;14.10;7.60;;;;;;;12.28;100.00;102710.81;5015700;28;20541;-78
2022/10/18 08:54:28;;;;;;;14.73;7.00;;;;;;;12.92;100.00;102826.03;4996525;28;20553;-74
2022/10/18 08:57:01;;;;;;;11.73;6.73;;;;;;;12.42;100.00;102785.53;4997197;28;20459;-75
2022/10/18 08:59:35;;;;;;;11.17;6.10;;;;;;;11.16;100.00;102545.25;5004832;28;20485;-75
2022/10/18 09:02:10;;;;;;;8.50;5.57;;;;;;;13.13;100.00;102834.47;4999374;28;25113;-74
2022/10/18 09:05:02;;;;;;;11.40;5.60;;;;;;;11.48;100.00;102582.13;5022091;28;20467;-75
2022/10/18 09:08:08;;;;;;;9.20;4.70;;;;;;;11.36;100.00;102548.50;5022633;28;20461;-75
2022/10/18 09:10:52;;;;;;;8.53;5.00;;;;;;;11.72;100.00;102607.44;5003340;28;20463;-75
2022/10/18 09:14:19;;;;;;;10.77;5.93;;;;;;;12.47;100.00;102712.41;5021541;28;20441;-75
2022/10/18 09:17:13;;;;;;;10.30;4.80;;;;;;;13.48;100.00;102827.97;4958663;28;20602;-76
2022/10/18 09:19:55;;;;;;;10.23;4.43;;;;;;;12.81;100.00;102747.25;5005229;28;20456;-76
2022/10/18 09:22:31;;;;;;;6.63;3.27;;;;;;;11.88;100.00;102548.34;5016922;28;20433;-75
2022/10/18 09:25:18;;;;;;;14.97;3.83;;;;;;;12.46;100.00;102672.19;5022271;28;20474;-76
2022/10/18 09:27:54;;;;;;;8.53;3.60;;;;;;;13.79;100.00;102843.41;5001973;28;20702;-75
2022/10/18 09:30:39;;;;;;;10.33;2.83;;;;;;;12.27;100.00;102614.16;5019515;28;20463;-76
2022/10/18 09:33:27;;;;;;;8.83;2.30;;;;;;;13.66;100.00;102849.34;5002022;28;20852;-76
2022/10/18 09:36:09;;;;;;;11.60;2.63;;;;;;;12.02;100.00;102568.38;5020387;28;20550;-76
2022/10/18 09:38:45;;;;;;;10.43;2.90;;;;;;;12.16;100.00;102588.41;5010020;28;20442;-75
2022/10/18 09:41:26;;;;;;;14.73;2.97;;;;;;;13.34;100.00;102761.28;5021687;28;20516;-76
2022/10/18 09:44:24;;;;;;;5.73;2.53;;;;;;;12.17;100.00;102568.56;5022915;28;20431;-76
2022/10/18 09:46:57;;;;;;;11.20;2.73;;;;;;;12.50;100.00;102571.25;5007908;28;20467;-75
2022/10/18 09:49:31;;;;;;;7.67;2.30;;;;;;;11.89;100.00;102490.03;5012733;28;20550;-75
2022/10/18 09:52:01;;;;;;;8.00;2.20;;;;;;;12.70;100.00;102580.66;5016659;28;20457;-75
2022/10/18 09:54:36;;;;;;;11.03;2.93;;;;;;;14.17;100.00;102832.88;5009833;28;20431;-75
2022/10/18 09:57:10;;;;;;;13.40;2.57;;;;;;;14.07;100.00;102838.47;5021933;28;20450;-75
2022/10/18 09:59:35;;;;;;;9.60;2.17;;;;;;;14.33;100.00;102831.97;5020868;28;20437;-75
2022/10/18 10:02:01;;;;;;;9.60;2.80;;;;;;;12.61;100.00;102539.47;5007152;28;20448;-75
2022/10/18 10:04:26;;;;;;;11.90;2.00;;;;;;;13.72;100.00;102745.34;5016568;28;20569;-76
2022/10/18 10:06:54;;;;;;;15.10;2.83;;;;;;;14.36;100.00;102869.44;5000734;28;20237;-76
2022/10/18 10:09:29;;;;;;;6.50;1.67;;;;;;;12.87;100.00;102520.38;5017939;28;20222;-77
2022/10/18 10:11:56;;;;;;;7.93;2.13;;;;;;;13.62;100.00;102683.50;5019254;28;25135;-75
2022/10/18 10:14:29;;;;;;;8.70;2.27;;;;;;;13.90;100.00;102666.88;5020970;28;20439;-77
2022/10/18 10:16:57;;;;;;;9.73;2.33;;;;;;;14.92;100.00;102806.16;5001786;28;20450;-75
2022/10/18 10:19:27;;;;;;;8.60;2.23;;;;;;;14.46;100.00;102765.59;5020518;28;20480;-78
2022/10/18 10:22:00;;;;;;;10.03;2.10;;;;;;;13.29;100.00;102518.41;5017909;28;20447;-75
2022/10/18 10:24:48;;;;;;;9.63;2.73;;;;;;;13.18;100.00;102543.81;5007786;28;20470;-76
2022/10/18 10:27:19;;;;;;;6.93;2.17;;;;;;;14.90;100.00;102786.63;5006301;28;20475;-76
2022/10/18 10:29:44;;;;;;;8.10;1.97;;;;;;;15.07;100.00;102781.06;5021722;28;20468;-76
2022/10/18 10:32:13;;;;;;;10.27;2.73;;;;;;;12.98;100.00;102529.91;4999004;28;20440;-76
2022/10/18 10:34:39;;;;;;;15.53;2.70;;;;;;;13.26;100.00;102521.44;5016277;28;20279;-77
2022/10/18 10:37:31;;;;;;;11.10;2.47;;;;;;;13.24;100.00;102480.31;5005121;28;20443;-76
2022/10/18 10:40:17;;;;;;;8.27;2.17;;;;;;;15.11;100.00;102769.72;5014723;28;20496;-77
2022/10/18 10:42:55;;;;;;;8.67;2.10;;;;;;;15.27;100.00;102771.44;5016661;28;20451;-77
2022/10/18 10:45:22;;;;;;;8.30;2.40;;;;;;;14.50;100.00;102622.16;5016563;28;20947;-77
2022/10/18 10:47:48;;;;;;;14.03;2.40;;;;;;;15.32;100.00;102769.03;5038643;23;20536;-72
2022/10/18 10:50:24;;;;;;;12.77;2.63;;;;;;;15.27;100.00;102773.28;5044833;28;20833;-72
2022/10/18 10:52:50;;;;;;;7.73;1.60;;;;;;;15.51;100.00;102740.63;5071657;28;20523;-71
2022/10/18 10:55:31;;;;;;;11.30;1.83;;;;;;;15.66;100.00;102767.69;5076295;28;20436;-72
2022/10/18 10:57:56;;;;;;;14.20;2.83;;;;;;;15.08;100.00;102707.09;5074063;28;20969;-69
2022/10/18 11:00:38;;;;;;;10.57;2.30;;;;;;;15.55;100.00;102728.41;5053243;28;20789;-69
2022/10/18 11:03:15;;;;;;;10.57;2.30;;;;;;;15.40;100.00;102748.34;5060234;28;20266;-68
2022/10/18 11:05:52;;;;;;;10.90;2.37;;;;;;;15.58;100.00;102738.84;5065172;28;20436;-68
2022/10/18 11:08:24;;;;;;;7.63;2.00;;;;;;;15.92;100.00;102733.94;5058482;28;20465;-73
2022/10/18 11:10:59;;;;;;;9.33;1.80;;;;;;;16.24;100.00;102751.63;5061494;28;20460;-69
2022/10/18 11:13:55;;;;;;;6.90;1.90;;;;;;;16.01;100.00;102741.75;5069476;28;20779;-70
2022/10/18 11:16:32;;;;;;;6.50;1.73;;;;;;;15.86;100.00;102740.94;5054903;28;20448;-71
2022/10/18 11:19:01;;;;;;;9.73;2.07;;;;;;;15.47;100.00;102739.28;5049334;28;20934;-71
2022/10/18 11:21:30;;;;;;;6.80;1.77;;;;;;;15.58;100.00;102749.66;5044171;28;20467;-71